Time;durP1;ratioP1;P1;durP2;ratioP2;P2;SDS_P1;SDS_P2;PMS_P1;PMS_P2;Temp;Humidity;BMP_temperature;BMP_pressure;BME280_temperature;BME280_humidity;BME280_pressure;Samples;Min_cycle;Max_cycle;Signal;HPM_P1;HPM_P2
2021/04/27 00:02:20;;;;;;;2.03;1.30;;;;;;;6.98;51.99;99658.59;637477;224;24814;-80
2021/04/27 00:04:48;;;;;;;3.13;1.70;;;;;;;7.17;52.04;99661.64;636603;225;24819;-79
2021/04/27 00:07:16;;;;;;;2.23;1.20;;;;;;;7.08;52.31;99660.23;624951;229;24876;-78
2021/04/27 00:09:44;;;;;;;1.80;1.60;;;;;;;6.98;52.97;99650.84;625451;225;27013;-79
2021/04/27 00:12:11;;;;;;;1.67;1.50;;;;;;;7.05;52.80;99654.05;617478;230;24891;-80
2021/04/27 00:14:39;;;;;;;4.50;1.60;;;;;;;7.11;52.56;99652.20;628427;225;25140;-78
2021/04/27 00:17:07;;;;;;;3.77;1.98;;;;;;;7.27;52.66;99650.34;620140;225;32864;-79
2021/04/27 00:19:35;;;;;;;1.87;1.67;;;;;;;7.12;52.76;99647.84;630116;225;23803;-79
2021/04/27 00:22:03;;;;;;;2.30;1.60;;;;;;;7.00;52.86;99647.64;625313;225;24856;-80
2021/04/27 00:24:31;;;;;;;4.00;1.70;;;;;;;7.05;52.91;99647.59;625566;226;24967;-79
2021/04/27 00:26:59;;;;;;;3.98;2.40;;;;;;;7.09;53.39;99651.52;620684;228;32949;-79
2021/04/27 00:29:28;;;;;;;7.37;2.03;;;;;;;6.93;53.93;99644.80;627934;228;23704;-79
2021/04/27 00:31:57;;;;;;;3.67;1.73;;;;;;;6.84;54.30;99650.77;628909;228;24858;-79
2021/04/27 00:34:25;;;;;;;6.10;2.23;;;;;;;6.80;54.27;99650.70;627920;226;26133;-80
2021/04/27 00:36:53;;;;;;;3.23;1.90;;;;;;;6.77;54.68;99645.81;620554;229;24866;-79
2021/04/27 00:39:20;;;;;;;4.43;2.33;;;;;;;6.74;54.32;99648.16;634086;225;25836;-79
2021/04/27 00:41:49;;;;;;;3.33;2.40;;;;;;;6.71;54.89;99645.03;638259;223;24842;-80
2021/04/27 00:44:16;;;;;;;1.80;1.70;;;;;;;6.67;54.94;99650.14;639438;223;25143;-79
2021/04/27 00:46:44;;;;;;;2.13;1.93;;;;;;;6.62;55.55;99647.16;616402;230;24871;-80
2021/04/27 00:49:12;;;;;;;3.47;2.20;;;;;;;6.49;55.48;99645.63;636108;225;24872;-78
2021/04/27 00:51:40;;;;;;;3.53;1.70;;;;;;;6.55;56.25;99641.69;632702;226;24906;-78
2021/04/27 00:54:08;;;;;;;1.83;1.70;;;;;;;6.41;55.90;99649.81;627480;226;29112;-79
2021/04/27 00:56:36;;;;;;;4.37;1.90;;;;;;;6.38;57.14;99645.73;632541;223;24829;-80
2021/04/27 00:59:04;;;;;;;4.13;1.83;;;;;;;6.41;55.92;99644.17;630709;226;24797;-79
2021/04/27 01:01:32;;;;;;;2.30;1.90;;;;;;;6.29;56.16;99642.64;636789;220;24856;-80
2021/04/27 01:04:00;;;;;;;3.93;1.87;;;;;;;6.24;56.29;99637.88;637217;225;24840;-80
2021/04/27 01:06:28;;;;;;;1.40;1.30;;;;;;;6.13;57.39;99644.91;637578;225;24885;-79
2021/04/27 01:08:56;;;;;;;3.20;2.07;;;;;;;6.10;57.64;99644.70;627206;225;25875;-80
2021/04/27 01:11:27;;;;;;;2.13;1.93;;;;;;;6.03;58.21;99647.92;625651;225;24853;-80
2021/04/27 01:13:57;;;;;;;2.83;1.90;;;;;;;6.00;58.56;99640.45;626789;225;24838;-79
2021/04/27 01:16:25;;;;;;;5.70;2.37;;;;;;;5.94;58.67;99638.73;632428;226;24857;-79
2021/04/27 01:18:53;;;;;;;2.70;2.43;;;;;;;5.99;57.92;99639.62;630373;225;24930;-79
2021/04/27 01:21:22;;;;;;;3.40;2.30;;;;;;;6.08;58.51;99638.05;623491;223;32840;-79
2021/04/27 01:23:57;;;;;;;9.00;2.80;;;;;;;6.02;58.80;99635.97;636142;225;23707;-80
2021/04/27 01:26:36;;;;;;;8.30;2.40;;;;;;;5.98;58.97;99639.77;628456;226;24818;-79
2021/04/27 01:29:05;;;;;;;4.60;2.10;;;;;;;6.02;58.58;99641.13;630424;225;24785;-80
2021/04/27 01:31:33;;;;;;;5.20;2.30;;;;;;;6.06;58.79;99636.07;637316;221;24794;-78
2021/04/27 01:34:01;;;;;;;2.10;1.90;;;;;;;5.98;59.18;99633.31;637603;219;24846;-79
2021/04/27 01:36:29;;;;;;;3.27;2.03;;;;;;;5.92;58.59;99637.23;631459;225;24835;-79
2021/04/27 01:38:57;;;;;;;2.63;2.43;;;;;;;5.93;58.73;99638.40;627558;225;28006;-80
2021/04/27 01:41:25;;;;;;;2.30;2.10;;;;;;;5.98;58.67;99641.05;617028;229;24849;-80
2021/04/27 01:43:53;;;;;;;1.90;1.70;;;;;;;5.97;59.25;99634.27;622602;230;24923;-80
2021/04/27 01:46:20;;;;;;;1.77;1.67;;;;;;;5.83;59.58;99640.08;614084;230;24848;-80
2021/04/27 01:48:49;;;;;;;3.43;2.23;;;;;;;5.66;60.26;99644.08;637465;225;24937;-80
2021/04/27 01:51:17;;;;;;;3.30;1.93;;;;;;;5.62;60.53;99648.30;636795;225;24806;-80
2021/04/27 01:53:45;;;;;;;3.50;2.00;;;;;;;5.70;60.42;99643.81;637825;223;24800;-80
2021/04/27 01:56:12;;;;;;;7.20;2.30;;;;;;;5.75;59.74;99639.08;626653;228;24900;-80
2021/04/27 01:58:40;;;;;;;3.60;2.10;;;;;;;5.87;59.29;99641.45;634987;225;24862;-80
2021/04/27 02:01:08;;;;;;;2.10;1.90;;;;;;;5.91;59.25;99641.59;624115;229;24866;-80
2021/04/27 02:03:40;;;;;;;1.70;1.60;;;;;;;6.00;58.72;99631.41;618050;229;24891;-79
2021/04/27 02:06:08;;;;;;;2.93;1.60;;;;;;;6.08;59.51;99640.63;632159;225;24901;-77
2021/04/27 02:08:36;;;;;;;3.20;1.60;;;;;;;6.11;59.42;99639.88;632617;225;24857;-79
2021/04/27 02:11:04;;;;;;;5.23;1.90;;;;;;;6.08;59.26;99636.75;625495;226;24973;-79
2021/04/27 02:13:32;;;;;;;2.53;2.33;;;;;;;6.01;59.62;99636.91;629032;225;24860;-79
2021/04/27 02:16:00;;;;;;;2.10;1.90;;;;;;;6.12;58.81;99631.66;619792;229;27055;-79
2021/04/27 02:18:31;;;;;;;3.03;1.80;;;;;;;6.06;59.50;99621.88;626475;228;24848;-80
2021/04/27 02:21:00;;;;;;;3.90;2.30;;;;;;;6.02;59.52;99628.22;626234;226;24844;-79
2021/04/27 02:23:29;;;;;;;2.30;2.03;;;;;;;6.03;59.81;99626.80;636839;226;24843;-79
2021/04/27 02:25:57;;;;;;;3.23;2.13;;;;;;;6.13;58.75;99626.84;634529;225;24871;-80
2021/04/27 02:28:24;;;;;;;2.30;1.93;;;;;;;6.09;59.61;99627.58;626408;228;25381;-80
2021/04/27 02:30:52;;;;;;;3.10;1.60;;;;;;;6.21;59.06;99625.72;622196;228;32935;-80
2021/04/27 02:33:20;;;;;;;3.33;1.80;;;;;;;6.36;58.08;99619.23;633607;224;32670;-78
2021/04/27 02:35:49;;;;;;;5.40;2.10;;;;;;;6.45;58.83;99621.47;621629;225;33013;-80
2021/04/27 02:38:19;;;;;;;2.60;2.10;;;;;;;6.24;59.20;99622.88;619623;230;23739;-78
2021/04/27 02:40:47;;;;;;;3.87;2.10;;;;;;;6.12;59.45;99620.05;635886;222;24807;-77
2021/04/27 02:43:15;;;;;;;4.78;1.70;;;;;;;6.20;59.45;99621.03;616438;228;36771;-79
2021/04/27 02:45:42;;;;;;;2.97;1.83;;;;;;;6.17;58.62;99620.45;634919;224;23725;-80
2021/04/27 02:48:11;;;;;;;2.10;1.90;;;;;;;6.17;59.35;99620.45;639329;224;24835;-80
2021/04/27 02:50:39;;;;;;;4.27;2.00;;;;;;;6.05;59.34;99624.90;615507;230;24893;-79
2021/04/27 02:53:07;;;;;;;3.70;1.80;;;;;;;6.12;58.79;99618.75;630338;226;26934;-80
2021/04/27 02:55:34;;;;;;;2.40;1.67;;;;;;;6.14;58.89;99615.56;626164;225;24853;-80
2021/04/27 02:58:02;;;;;;;2.47;2.10;;;;;;;6.04;58.80;99611.66;625899;225;28159;-80
2021/04/27 03:00:30;;;;;;;3.53;1.73;;;;;;;6.09;59.08;99606.12;625682;225;24870;-80
2021/04/27 03:02:58;;;;;;;2.80;1.93;;;;;;;6.18;59.37;99609.99;626880;225;24886;-80
2021/04/27 03:05:26;;;;;;;2.47;1.80;;;;;;;6.22;58.34;99601.53;636097;224;24886;-79
2021/04/27 03:07:54;;;;;;;2.92;1.75;;;;;;;6.29;59.05;99601.33;610788;229;32866;-77
2021/04/27 03:10:22;;;;;;;4.97;2.03;;;;;;;6.24;59.00;99604.32;620888;226;29082;-79
2021/04/27 03:12:50;;;;;;;4.80;2.10;;;;;;;6.16;58.54;99600.28;636622;225;24847;-80
2021/04/27 03:15:18;;;;;;;6.10;2.00;;;;;;;6.04;59.01;99600.52;636175;225;24882;-80
2021/04/27 03:17:46;;;;;;;2.55;1.90;;;;;;;6.09;59.26;99603.06;611317;229;43589;-80
2021/04/27 03:20:14;;;;;;;3.27;1.80;;;;;;;5.95;59.37;99599.08;618214;229;23710;-80
2021/04/27 03:22:42;;;;;;;6.77;1.80;;;;;;;6.03;59.22;99601.46;625037;228;24857;-80
2021/04/27 03:25:11;;;;;;;1.67;1.53;;;;;;;5.95;59.36;99597.78;622076;230;24887;-80
2021/04/27 03:27:39;;;;;;;2.07;1.87;;;;;;;6.01;59.58;99608.52;625340;228;24863;-80
2021/04/27 03:30:08;;;;;;;4.50;2.00;;;;;;;5.92;59.71;99607.09;637803;225;28136;-79
2021/04/27 03:32:35;;;;;;;5.10;1.60;;;;;;;5.89;59.73;99606.00;627881;225;24859;-80
2021/04/27 03:35:03;;;;;;;2.70;1.80;;;;;;;6.05;59.85;99607.30;622182;225;32679;-79
2021/04/27 03:37:31;;;;;;;3.03;1.83;;;;;;;5.99;59.16;99608.66;637464;225;24871;-80
2021/04/27 03:39:59;;;;;;;2.57;1.60;;;;;;;6.05;59.09;99607.30;628902;223;32704;-79
2021/04/27 03:42:27;;;;;;;3.53;1.70;;;;;;;6.00;58.94;99600.44;621346;229;24884;-79
2021/04/27 03:44:55;;;;;;;2.73;1.77;;;;;;;5.88;59.81;99608.24;636555;225;24808;-79
2021/04/27 03:47:23;;;;;;;5.20;1.87;;;;;;;5.89;59.11;99609.88;636510;224;25089;-80
2021/04/27 03:49:51;;;;;;;3.20;1.87;;;;;;;5.89;59.49;99612.45;632063;223;32679;-80
2021/04/27 03:52:19;;;;;;;4.23;1.67;;;;;;;5.91;59.72;99611.91;634271;225;26918;-79
2021/04/27 03:54:47;;;;;;;2.17;1.50;;;;;;;5.91;59.04;99605.90;637243;225;24834;-79
2021/04/27 03:57:14;;;;;;;2.77;1.60;;;;;;;5.74;59.49;99602.14;636467;225;26963;-79
2021/04/27 03:59:44;;;;;;;2.20;1.80;;;;;;;5.74;60.31;99604.72;637713;225;24804;-80
2021/04/27 04:02:13;;;;;;;5.20;2.30;;;;;;;5.69;61.52;99604.30;636902;225;24869;-80
2021/04/27 04:04:40;;;;;;;8.27;2.03;;;;;;;5.61;60.79;99605.41;628721;225;24836;-80
2021/04/27 04:07:08;;;;;;;4.03;2.27;;;;;;;5.61;60.54;99609.27;630163;225;25200;-80
2021/04/27 04:09:38;;;;;;;4.57;1.57;;;;;;;5.58;60.53;99610.83;628056;226;24823;-80
2021/04/27 04:12:08;;;;;;;3.00;1.70;;;;;;;5.63;60.68;99615.12;618540;230;24875;-80
2021/04/27 04:14:36;;;;;;;6.40;1.80;;;;;;;5.44;61.45;99620.19;617750;230;24916;-80
2021/04/27 04:17:03;;;;;;;2.20;2.00;;;;;;;5.26;62.84;99616.89;619356;229;25184;-81
2021/04/27 04:19:31;;;;;;;2.17;1.97;;;;;;;5.01;63.95;99621.13;621463;229;24878;-81
2021/04/27 04:21:59;;;;;;;2.97;2.07;;;;;;;4.87;64.69;99626.56;620919;230;24856;-80
2021/04/27 04:24:27;;;;;;;6.43;2.77;;;;;;;4.82;64.48;99634.67;620514;229;24918;-80
2021/04/27 04:26:55;;;;;;;3.33;2.23;;;;;;;4.72;64.95;99633.77;633043;225;24847;-80
2021/04/27 04:29:24;;;;;;;2.80;2.10;;;;;;;4.67;65.41;99634.14;624059;225;32854;-79
2021/04/27 04:31:52;;;;;;;3.63;2.77;;;;;;;4.64;65.49;99633.08;624080;225;23735;-80
2021/04/27 04:34:20;;;;;;;4.37;2.70;;;;;;;4.66;65.63;99640.23;636250;225;25858;-80
2021/04/27 04:36:48;;;;;;;2.53;2.10;;;;;;;4.69;66.02;99643.84;610951;229;32881;-79
2021/04/27 04:39:15;;;;;;;5.10;2.30;;;;;;;4.71;65.27;99636.81;613300;230;32867;-79
2021/04/27 04:41:43;;;;;;;3.75;2.37;;;;;;;4.80;65.41;99643.47;630801;222;32749;-80
2021/04/27 04:44:11;;;;;;;9.28;2.67;;;;;;;4.77;65.95;99646.61;632230;225;32733;-79
2021/04/27 04:46:39;;;;;;;4.47;2.53;;;;;;;4.70;66.13;99651.92;637709;225;23686;-79
2021/04/27 04:49:07;;;;;;;4.63;2.40;;;;;;;4.75;65.93;99643.82;636396;225;24850;-79
2021/04/27 04:51:35;;;;;;;6.50;2.50;;;;;;;4.87;65.89;99642.03;636844;222;24821;-78
2021/04/27 04:54:03;;;;;;;4.83;2.60;;;;;;;4.93;65.52;99642.37;619656;229;25987;-79
2021/04/27 04:56:31;;;;;;;8.00;2.47;;;;;;;5.01;65.59;99641.73;613871;229;24872;-80
2021/04/27 04:58:59;;;;;;;2.50;2.30;;;;;;;4.92;65.77;99639.89;614465;229;24907;-80
2021/04/27 05:01:27;;;;;;;4.00;2.57;;;;;;;5.10;65.34;99639.72;634746;221;24828;-81
2021/04/27 05:03:55;;;;;;;4.00;2.47;;;;;;;5.17;65.29;99647.28;637175;225;24836;-80
2021/04/27 05:06:23;;;;;;;5.33;2.53;;;;;;;5.22;65.70;99643.87;638610;224;30321;-80
2021/04/27 05:08:52;;;;;;;4.53;2.50;;;;;;;5.37;64.95;99645.67;637842;225;24832;-79
2021/04/27 05:11:18;;;;;;;4.03;2.20;;;;;;;5.44;65.24;99645.50;636970;221;24811;-79
2021/04/27 05:13:46;;;;;;;3.77;2.30;;;;;;;5.43;65.96;99641.76;620166;229;24877;-79
2021/04/27 05:16:14;;;;;;;4.27;2.40;;;;;;;5.34;66.13;99642.84;635002;225;24842;-79
2021/04/27 05:18:42;;;;;;;2.50;2.10;;;;;;;5.28;65.51;99647.23;626514;226;25156;-79
2021/04/27 05:21:10;;;;;;;3.80;2.70;;;;;;;5.47;66.15;99650.87;625615;225;24844;-79
2021/04/27 05:23:38;;;;;;;2.87;2.23;;;;;;;5.54;66.33;99646.85;626182;226;24867;-80
2021/04/27 05:26:05;;;;;;;5.07;2.77;;;;;;;5.52;65.58;99647.45;625976;226;25129;-79
2021/04/27 05:28:33;;;;;;;6.67;2.50;;;;;;;5.61;66.14;99647.97;614353;227;33012;-79
2021/04/27 05:31:01;;;;;;;4.00;2.20;;;;;;;5.58;65.27;99645.64;638605;221;23695;-79
2021/04/27 05:33:29;;;;;;;9.87;2.90;;;;;;;5.56;64.97;99644.96;636431;225;24814;-79
2021/04/27 05:35:57;;;;;;;3.90;2.50;;;;;;;5.61;65.48;99648.78;617844;229;25875;-80
2021/04/27 05:38:25;;;;;;;4.97;2.73;;;;;;;5.78;65.17;99652.56;625298;229;24888;-79
2021/04/27 05:40:53;;;;;;;12.43;2.55;;;;;;;5.95;64.75;99651.98;620611;229;33036;-79
2021/04/27 05:43:21;;;;;;;10.70;2.90;;;;;;;6.16;64.46;99646.75;624643;224;32711;-79
2021/04/27 05:45:49;;;;;;;6.58;2.40;;;;;;;6.27;63.56;99645.84;621873;228;32961;-80
2021/04/27 05:49:04;;;;;;;7.70;2.70;;;;;;;6.23;63.87;99640.60;648566;217;29931;-78
2021/04/27 05:51:35;;;;;;;4.97;2.60;;;;;;;6.20;64.13;99642.98;623527;224;24855;-79
2021/04/27 05:54:03;;;;;;;3.87;2.67;;;;;;;6.18;63.09;99635.81;619331;230;24887;-78
2021/04/27 05:56:32;;;;;;;9.53;2.43;;;;;;;6.07;63.45;99636.41;615780;229;24932;-78
2021/04/27 05:59:00;;;;;;;3.63;2.20;;;;;;;6.24;64.30;99637.07;634698;225;24895;-79
2021/04/27 06:01:27;;;;;;;4.23;2.50;;;;;;;6.41;63.60;99640.77;637208;225;24847;-78
2021/04/27 06:03:55;;;;;;;4.43;2.23;;;;;;;6.65;62.98;99641.23;637699;225;24893;-79
2021/04/27 06:06:23;;;;;;;2.90;2.17;;;;;;;6.66;63.15;99639.47;622088;229;24877;-78
2021/04/27 06:08:51;;;;;;;4.70;2.10;;;;;;;6.86;63.37;99634.64;619771;229;27050;-78
2021/04/27 06:11:19;;;;;;;3.92;2.33;;;;;;;7.04;61.86;99629.63;628247;225;32852;-78
2021/04/27 06:13:47;;;;;;;3.63;2.63;;;;;;;6.93;61.94;99624.59;637297;225;23703;-79
2021/04/27 06:16:15;;;;;;;5.83;2.70;;;;;;;7.07;61.72;99623.70;639539;225;25554;-78
2021/04/27 06:18:43;;;;;;;4.67;1.90;;;;;;;7.26;60.95;99616.38;639024;225;24876;-79
2021/04/27 06:21:12;;;;;;;4.60;2.63;;;;;;;7.31;60.34;99614.67;637244;225;24844;-78
2021/04/27 06:23:38;;;;;;;3.63;2.10;;;;;;;7.40;61.54;99617.72;632689;225;25249;-78
2021/04/27 06:26:06;;;;;;;2.50;2.30;;;;;;;7.59;60.02;99612.97;618919;230;24868;-78
2021/04/27 06:28:34;;;;;;;2.10;1.90;;;;;;;7.66;57.76;99599.34;622458;230;27069;-77
2021/04/27 06:31:02;;;;;;;7.13;1.97;;;;;;;7.86;56.88;99591.00;623220;229;24883;-78
2021/04/27 06:33:31;;;;;;;4.60;1.90;;;;;;;8.05;56.32;99595.30;617452;230;24870;-78
2021/04/27 06:35:59;;;;;;;4.63;2.20;;;;;;;8.01;56.45;99586.16;614703;229;24895;-79
2021/04/27 06:38:27;;;;;;;2.50;1.43;;;;;;;7.92;56.37;99583.16;633846;225;28103;-77
2021/04/27 06:40:55;;;;;;;4.80;1.83;;;;;;;8.22;55.77;99572.50;635126;225;24837;-77
2021/04/27 06:43:23;;;;;;;3.00;2.07;;;;;;;8.20;55.45;99574.42;628903;225;24844;-78
2021/04/27 06:45:51;;;;;;;4.43;1.93;;;;;;;8.11;55.13;99563.62;637010;225;24861;-78
2021/04/27 06:48:19;;;;;;;2.30;1.90;;;;;;;8.07;54.77;99566.66;637483;225;24843;-78
2021/04/27 06:50:47;;;;;;;2.50;2.03;;;;;;;8.18;55.19;99559.52;620390;229;25173;-78
2021/04/27 06:53:15;;;;;;;2.60;2.00;;;;;;;8.18;55.07;99555.62;623588;229;24926;-78
2021/04/27 06:55:43;;;;;;;3.30;1.90;;;;;;;8.43;54.56;99560.58;628506;225;24867;-78
2021/04/27 06:58:13;;;;;;;3.50;2.20;;;;;;;8.18;54.64;99560.80;620146;227;24882;-78
2021/04/27 07:00:40;;;;;;;4.87;2.10;;;;;;;8.46;54.40;99561.60;626182;226;25345;-78
2021/04/27 07:03:08;;;;;;;3.52;1.82;;;;;;;8.81;54.96;99562.06;609135;229;33091;-79
2021/04/27 07:05:36;;;;;;;5.27;2.00;;;;;;;8.99;54.62;99568.51;618609;230;23729;-79
2021/04/27 07:08:06;;;;;;;2.93;2.63;;;;;;;8.99;53.99;99559.91;621225;230;28078;-78
2021/04/27 07:10:34;;;;;;;2.57;2.37;;;;;;;9.03;53.52;99559.97;622077;226;24934;-79
2021/04/27 07:13:02;;;;;;;5.73;2.47;;;;;;;9.02;53.87;99557.05;635860;225;24867;-79
2021/04/27 07:15:30;;;;;;;2.97;2.37;;;;;;;9.16;53.98;99559.90;636207;218;24858;-76
2021/04/27 07:17:58;;;;;;;2.70;1.97;;;;;;;9.26;52.70;99551.99;635684;225;24877;-79
2021/04/27 07:20:26;;;;;;;6.57;2.40;;;;;;;9.25;52.62;99558.16;635336;224;24842;-79
2021/04/27 07:22:53;;;;;;;2.73;2.17;;;;;;;9.20;52.95;99555.22;635360;225;24871;-79
2021/04/27 07:25:22;;;;;;;4.50;2.13;;;;;;;9.38;54.20;99556.45;634242;225;28127;-78
2021/04/27 07:27:50;;;;;;;5.80;2.33;;;;;;;9.49;52.94;99550.52;619601;229;24855;-79
2021/04/27 07:30:20;;;;;;;4.60;2.43;;;;;;;9.81;53.76;99546.43;632802;221;24862;-78
2021/04/27 07:32:47;;;;;;;3.73;2.07;;;;;;;9.63;51.78;99550.42;639546;225;24857;-78
2021/04/27 07:35:15;;;;;;;3.13;1.93;;;;;;;9.67;52.55;99550.91;623905;229;28087;-78
2021/04/27 07:37:43;;;;;;;5.70;2.40;;;;;;;9.85;52.72;99550.33;631507;225;24828;-78
2021/04/27 07:40:11;;;;;;;3.20;2.10;;;;;;;9.77;52.23;99546.42;622399;226;28029;-78
2021/04/27 07:42:39;;;;;;;5.10;2.13;;;;;;;9.80;51.74;99538.31;624048;229;24944;-79
2021/04/27 07:45:08;;;;;;;4.70;2.40;;;;;;;10.13;52.13;99541.81;625648;225;32980;-78
2021/04/27 07:47:36;;;;;;;3.00;2.63;;;;;;;10.34;52.58;99535.73;638103;225;24923;-78
2021/04/27 07:50:04;;;;;;;3.10;2.00;;;;;;;10.47;52.69;99540.46;614363;229;24854;-79
2021/04/27 07:52:33;;;;;;;2.93;2.03;;;;;;;10.44;52.08;99531.69;636144;225;24832;-79
2021/04/27 07:55:00;;;;;;;3.30;2.00;;;;;;;10.84;52.87;99537.85;626444;223;32860;-79
2021/04/27 07:57:27;;;;;;;4.20;2.30;;;;;;;10.94;50.34;99535.91;625257;226;24813;-78
2021/04/27 07:59:55;;;;;;;5.90;2.50;;;;;;;10.77;50.55;99523.40;615612;230;26995;-78
2021/04/27 08:02:23;;;;;;;3.70;2.47;;;;;;;10.66;51.62;99530.22;620396;229;24900;-79
2021/04/27 08:04:51;;;;;;;2.80;2.30;;;;;;;10.63;51.03;99522.27;628764;225;24892;-78
2021/04/27 08:07:19;;;;;;;3.27;2.40;;;;;;;10.78;52.82;99527.63;625835;228;28047;-78
2021/04/27 08:09:47;;;;;;;3.53;2.37;;;;;;;10.96;51.19;99524.34;627223;228;24885;-78
2021/04/27 08:12:15;;;;;;;2.77;2.57;;;;;;;10.84;50.54;99518.34;636096;224;24871;-78
2021/04/27 08:14:43;;;;;;;3.37;2.30;;;;;;;10.69;50.26;99515.59;623220;229;24929;-78
2021/04/27 08:17:13;;;;;;;4.40;2.63;;;;;;;10.94;50.25;99521.10;633298;224;25186;-78
2021/04/27 08:19:40;;;;;;;4.63;2.57;;;;;;;11.18;50.89;99518.95;625733;224;32853;-78
2021/04/27 08:22:08;;;;;;;6.13;3.30;;;;;;;11.23;50.47;99516.66;634148;222;24860;-79
2021/04/27 08:24:36;;;;;;;4.00;2.77;;;;;;;11.21;50.02;99521.72;617641;229;24895;-79
2021/04/27 08:27:04;;;;;;;4.63;2.60;;;;;;;11.30;51.77;99509.02;625225;229;24900;-78
2021/04/27 08:29:32;;;;;;;4.03;2.90;;;;;;;11.30;50.59;99512.92;636340;223;24902;-79
2021/04/27 08:32:00;;;;;;;4.53;2.97;;;;;;;10.94;49.99;99506.80;632137;226;24895;-78
2021/04/27 08:34:28;;;;;;;4.07;2.67;;;;;;;11.39;50.09;99505.87;616069;230;28075;-79
2021/04/27 08:36:56;;;;;;;11.80;3.57;;;;;;;11.47;49.70;99496.75;628204;228;24857;-79
2021/04/27 08:39:24;;;;;;;6.57;2.63;;;;;;;11.63;50.63;99503.19;627875;228;24848;-79
2021/04/27 08:41:52;;;;;;;4.17;2.87;;;;;;;11.59;50.78;99494.09;638159;221;24833;-78
2021/04/27 08:44:20;;;;;;;7.50;3.33;;;;;;;11.91;50.51;99495.76;634940;225;24846;-78
2021/04/27 08:46:48;;;;;;;6.30;3.10;;;;;;;12.06;50.03;99494.04;637001;225;28029;-78
2021/04/27 08:49:15;;;;;;;6.90;2.80;;;;;;;11.92;48.96;99484.84;637564;225;24890;-78
2021/04/27 08:51:43;;;;;;;7.60;4.05;;;;;;;12.07;48.69;99479.21;610658;229;32858;-79
2021/04/27 08:54:11;;;;;;;8.87;3.27;;;;;;;12.45;50.39;99495.23;635008;225;23748;-78
2021/04/27 08:56:39;;;;;;;6.17;3.23;;;;;;;12.56;49.52;99489.30;617694;229;25201;-79
2021/04/27 08:59:07;;;;;;;5.17;3.13;;;;;;;12.35;49.77;99479.50;625571;225;24819;-78
2021/04/27 09:01:35;;;;;;;6.10;3.40;;;;;;;12.57;48.72;99477.38;634893;225;24876;-78
2021/04/27 09:04:03;;;;;;;3.70;2.80;;;;;;;12.90;49.00;99480.99;637683;225;24847;-78
2021/04/27 09:06:31;;;;;;;6.50;3.30;;;;;;;12.99;48.61;99477.33;630318;225;24956;-79
2021/04/27 09:08:58;;;;;;;8.90;3.07;;;;;;;13.15;47.68;99466.70;636233;225;24853;-78
2021/04/27 09:11:28;;;;;;;5.90;3.13;;;;;;;13.20;49.30;99471.41;632375;225;30550;-78
2021/04/27 09:14:11;;;;;;;6.90;3.37;;;;;;;13.57;48.54;99463.95;614345;229;24994;-78
2021/04/27 09:16:39;;;;;;;7.00;3.30;;;;;;;13.48;46.76;99453.28;633289;225;27019;-75
2021/04/27 09:19:06;;;;;;;6.07;3.97;;;;;;;13.35;47.38;99456.04;629168;225;24854;-75
2021/04/27 09:21:34;;;;;;;4.80;3.40;;;;;;;13.56;46.17;99450.58;632616;223;28047;-76
2021/04/27 09:24:13;;;;;;;4.33;2.80;;;;;;;13.76;48.66;99446.38;634824;224;29155;-77
2021/04/27 09:26:41;;;;;;;4.83;3.50;;;;;;;13.73;48.79;99450.67;637261;223;23891;-76
2021/04/27 09:29:09;;;;;;;6.97;3.97;;;;;;;13.61;46.71;99438.58;629186;225;23867;-76
2021/04/27 09:31:37;;;;;;;5.43;3.43;;;;;;;13.91;47.78;99441.91;633129;225;24868;-76
2021/04/27 09:34:22;;;;;;;5.00;3.50;;;;;;;14.30;47.87;99437.25;639270;224;24901;-76
2021/04/27 09:36:50;;;;;;;6.03;4.13;;;;;;;14.19;46.87;99439.87;636209;225;23907;-76
2021/04/27 09:39:20;;;;;;;6.53;4.57;;;;;;;14.09;46.80;99429.73;639022;225;24859;-77
2021/04/27 09:41:57;;;;;;;6.40;4.30;;;;;;;13.88;46.14;99425.80;628606;225;36012;-79
2021/04/27 09:44:27;;;;;;;10.47;4.30;;;;;;;14.08;46.38;99426.81;635241;224;25187;-77
2021/04/27 09:47:15;;;;;;;6.83;4.03;;;;;;;14.41;46.08;99418.44;623049;229;25512;-77
2021/04/27 09:49:51;;;;;;;6.20;4.10;;;;;;;14.43;46.22;99425.59;614024;230;29141;-77
2021/04/27 09:52:18;;;;;;;6.67;3.90;;;;;;;13.98;46.56;99427.61;636713;225;27999;-76
2021/04/27 09:54:56;;;;;;;6.40;3.80;;;;;;;14.04;46.61;99416.40;635847;223;24845;-79
2021/04/27 09:57:26;;;;;;;6.17;4.10;;;;;;;14.41;45.81;99417.13;624541;229;24828;-76
2021/04/27 09:59:55;;;;;;;9.23;4.43;;;;;;;14.84;46.93;99412.13;614701;229;24849;-77
2021/04/27 10:02:22;;;;;;;6.30;4.30;;;;;;;14.65;44.72;99404.97;615241;229;24856;-76
2021/04/27 10:04:51;;;;;;;8.63;4.10;;;;;;;14.22;45.67;99400.28;627899;228;23886;-76
2021/04/27 10:07:19;;;;;;;6.73;3.70;;;;;;;15.03;49.30;99407.18;633089;223;24828;-76
2021/04/27 10:09:47;;;;;;;7.23;4.40;;;;;;;15.18;45.53;99390.02;620601;229;24906;-77
2021/04/27 10:12:16;;;;;;;7.23;4.60;;;;;;;14.82;46.95;99397.11;624422;230;25001;-74
2021/04/27 10:14:44;;;;;;;7.87;4.10;;;;;;;14.46;46.98;99391.22;622806;229;24896;-76
2021/04/27 10:17:16;;;;;;;5.70;4.60;;;;;;;14.91;44.70;99375.98;627851;225;43552;-77
2021/04/27 10:19:40;;;;;;;8.13;4.20;;;;;;;15.10;46.39;99381.34;633547;225;23740;-75
2021/04/27 10:22:07;;;;;;;10.80;4.30;;;;;;;15.00;44.46;99382.70;636610;225;24845;-76
2021/04/27 10:24:35;;;;;;;4.80;4.13;;;;;;;14.63;45.73;99368.18;637144;225;24834;-79
2021/04/27 10:27:03;;;;;;;7.42;4.40;;;;;;;14.67;44.05;99358.47;631528;225;32876;-76
2021/04/27 10:29:31;;;;;;;6.97;4.70;;;;;;;15.13;44.91;99365.73;635676;225;22740;-76
2021/04/27 10:32:10;;;;;;;6.20;4.10;;;;;;;15.25;44.97;99356.31;632303;224;23954;-76
2021/04/27 10:34:38;;;;;;;6.60;4.97;;;;;;;15.17;44.91;99347.30;621084;228;24874;-77
2021/04/27 10:37:07;;;;;;;8.07;4.80;;;;;;;15.52;43.08;99343.29;629149;225;24824;-77
2021/04/27 10:39:37;;;;;;;4.47;4.07;;;;;;;15.44;44.18;99334.59;625117;230;24910;-76
2021/04/27 10:42:16;;;;;;;9.93;4.63;;;;;;;15.34;45.22;99334.19;626838;225;24863;-75
2021/04/27 10:44:50;;;;;;;8.17;4.40;;;;;;;15.56;44.86;99334.02;620663;229;24842;-76
2021/04/27 10:47:18;;;;;;;7.97;4.87;;;;;;;16.07;44.32;99336.12;636130;225;25189;-76
2021/04/27 10:49:46;;;;;;;10.07;4.67;;;;;;;15.95;44.58;99326.73;615952;229;25092;-77
2021/04/27 10:52:26;;;;;;;7.20;5.07;;;;;;;15.77;43.73;99320.78;617952;229;24892;-76
2021/04/27 10:54:53;;;;;;;7.20;4.67;;;;;;;16.01;44.55;99324.09;634809;225;23856;-77
2021/04/27 10:57:22;;;;;;;7.00;4.10;;;;;;;15.80;42.67;99324.30;616100;230;23919;-76
2021/04/27 10:59:52;;;;;;;7.27;4.50;;;;;;;15.74;42.40;99314.60;627235;225;23869;-75
2021/04/27 11:02:21;;;;;;;9.87;4.67;;;;;;;16.12;43.24;99307.45;634004;222;24876;-77
2021/04/27 11:04:47;;;;;;;5.27;4.50;;;;;;;16.00;43.83;99310.68;628732;225;24877;-76
2021/04/27 11:07:26;;;;;;;6.20;4.40;;;;;;;16.03;42.89;99305.02;625844;225;24139;-77
2021/04/27 11:10:25;;;;;;;4.90;4.40;;;;;;;16.43;44.21;99303.66;626063;226;24791;-77
2021/04/27 11:12:57;;;;;;;9.83;4.50;;;;;;;16.31;43.17;99294.29;630123;225;23834;-76
2021/04/27 11:15:25;;;;;;;8.53;4.50;;;;;;;16.37;44.53;99291.38;632680;226;24828;-77
2021/04/27 11:17:57;;;;;;;11.13;5.13;;;;;;;16.24;42.15;99283.02;625476;226;24862;-77
2021/04/27 11:20:46;;;;;;;9.78;4.85;;;;;;;16.69;42.76;99283.63;630754;225;32930;-78
2021/04/27 11:23:53;;;;;;;5.47;4.80;;;;;;;16.59;42.31;99282.72;632267;226;27949;-77
2021/04/27 11:26:43;;;;;;;6.53;4.87;;;;;;;16.77;42.96;99273.72;625321;228;23874;-77
2021/04/27 11:29:15;;;;;;;8.37;4.37;;;;;;;16.52;42.95;99280.12;622679;229;23909;-77
2021/04/27 11:31:51;;;;;;;7.20;4.50;;;;;;;16.25;43.13;99274.13;623146;229;24220;-77
2021/04/27 11:34:19;;;;;;;6.10;5.20;;;;;;;16.36;42.60;99275.33;637594;223;23881;-76
2021/04/27 11:36:47;;;;;;;9.03;4.67;;;;;;;16.49;39.66;99267.42;635231;225;24826;-77
2021/04/27 11:39:15;;;;;;;11.03;4.33;;;;;;;16.94;41.33;99262.73;637075;225;23868;-75
2021/04/27 11:41:45;;;;;;;5.90;4.70;;;;;;;17.43;40.66;99248.88;632651;225;23875;-76
2021/04/27 11:44:13;;;;;;;5.73;4.03;;;;;;;17.19;41.93;99264.92;634029;225;24887;-74
2021/04/27 11:46:54;;;;;;;6.43;4.53;;;;;;;17.05;42.69;99256.81;625489;228;23899;-75
2021/04/27 11:49:22;;;;;;;6.70;4.53;;;;;;;16.95;41.82;99258.58;616006;229;28053;-78